createdAt,value
2018-02-03T00:02:05.357Z,76.28
2018-02-03T00:04:37.733Z,76.18
2018-02-03T00:07:06.934Z,76.31
2018-02-03T00:09:36.456Z,76.40
2018-02-03T00:12:08.268Z,76.17
2018-02-03T00:14:40.213Z,76.08
2018-02-03T00:17:09.723Z,75.89
2018-02-03T00:19:40.022Z,76.16
2018-02-03T00:22:11.213Z,75.94
2018-02-03T00:24:40.629Z,76.46
2018-02-03T00:27:09.502Z,76.58
2018-02-03T00:29:52.910Z,76.73
2018-02-03T00:32:22.813Z,76.58
2018-02-03T00:34:51.741Z,76.61
2018-02-03T00:37:20.505Z,76.46
2018-02-03T00:39:49.569Z,76.31
2018-02-03T00:42:18.750Z,76.34
2018-02-03T00:44:48.388Z,76.35
2018-02-03T00:47:17.469Z,76.09
2018-02-03T00:49:46.238Z,75.99
2018-02-03T00:52:15.058Z,75.99
2018-02-03T00:54:44.158Z,76.09
2018-02-03T00:57:12.962Z,76.00
2018-02-03T00:59:42.004Z,75.70
2018-02-03T01:02:11.093Z,75.55
2018-02-03T01:04:40.059Z,75.22
2018-02-03T01:07:08.884Z,75.31
2018-02-03T01:09:40.067Z,75.06
2018-02-03T01:12:08.890Z,74.76
2018-02-03T01:14:38.219Z,74.69
2018-02-03T01:17:07.340Z,74.70
2018-02-03T01:19:37.400Z,74.54
2018-02-03T01:22:06.257Z,74.08
2018-02-03T01:24:36.422Z,74.03
2018-02-03T01:27:05.807Z,73.81
2018-02-03T01:29:36.919Z,74.45
2018-02-03T01:32:06.336Z,74.50
2018-02-03T01:34:36.016Z,74.68
2018-02-03T01:37:05.159Z,75.23
2018-02-03T01:39:36.519Z,75.33
2018-02-03T01:42:06.126Z,75.57
2018-02-03T01:44:35.734Z,75.33
2018-02-03T01:47:04.928Z,74.80
2018-02-03T01:49:34.709Z,74.41
2018-02-03T01:52:05.303Z,74.33
2018-02-03T01:54:34.740Z,74.28
2018-02-03T01:57:04.227Z,74.37
2018-02-03T01:59:33.297Z,75.23
2018-02-03T02:02:03.360Z,75.34
2018-02-03T02:04:32.508Z,75.33
2018-02-03T02:07:02.779Z,75.10
2018-02-03T02:09:31.546Z,74.62
2018-02-03T02:12:00.485Z,74.83
2018-02-03T02:14:29.278Z,75.03
2018-02-03T02:16:58.085Z,75.76
2018-02-03T02:19:27.179Z,75.85
2018-02-03T02:21:56.040Z,75.40
2018-02-03T02:24:24.917Z,75.31
2018-02-03T02:26:53.984Z,75.27
2018-02-03T02:29:22.883Z,75.13
2018-02-03T02:31:51.656Z,75.51
2018-02-03T02:34:20.832Z,75.29
2018-02-03T02:36:49.881Z,75.14
2018-02-03T02:39:18.812Z,74.77
2018-02-03T02:41:48.197Z,74.88
2018-02-03T02:44:17.389Z,74.69
2018-02-03T02:46:46.165Z,73.97
2018-02-03T02:49:15.068Z,73.42
2018-02-03T02:51:44.267Z,73.56
2018-02-03T02:54:13.117Z,73.28
2018-02-03T02:57:44.680Z,72.79
2018-02-03T03:00:13.749Z,73.19
2018-02-03T03:02:43.515Z,73.08
2018-02-03T03:05:12.604Z,73.29
2018-02-03T03:07:41.748Z,73.61
2018-02-03T03:10:10.648Z,73.31
2018-02-03T03:12:40.094Z,73.43
2018-02-03T03:15:09.245Z,73.56
2018-02-03T03:17:38.538Z,73.42
2018-02-03T03:20:07.308Z,73.41
2018-02-03T03:22:38.299Z,73.45
2018-02-03T03:25:07.828Z,73.51
2018-02-03T03:27:37.240Z,73.47
2018-02-03T03:30:06.017Z,73.74
2018-02-03T03:32:35.739Z,73.57
2018-02-03T03:35:04.796Z,73.66
2018-02-03T03:37:33.720Z,73.50
2018-02-03T03:41:05.309Z,73.29
2018-02-03T03:43:35.005Z,73.05
2018-02-03T03:46:04.680Z,73.41
2018-02-03T03:48:33.718Z,73.14
2018-02-03T03:51:03.060Z,73.10
2018-02-03T03:53:32.182Z,73.28
2018-02-03T03:56:03.111Z,73.43
2018-02-03T03:58:32.452Z,73.77
2018-02-03T04:01:01.473Z,74.33
2018-02-03T04:03:30.318Z,74.49
2018-02-03T04:05:59.439Z,74.66
2018-02-03T04:08:28.636Z,74.45
2018-02-03T04:10:57.438Z,74.83
2018-02-03T04:13:26.459Z,74.72
2018-02-03T04:15:56.518Z,74.44
2018-02-03T04:18:25.338Z,74.22
2018-02-03T04:20:54.132Z,74.34
2018-02-03T04:23:23.296Z,74.44
2018-02-03T04:25:52.140Z,74.28
2018-02-03T04:28:20.981Z,74.11
2018-02-03T04:30:49.864Z,74.40
2018-02-03T04:33:18.927Z,74.58
2018-02-03T04:35:48.675Z,74.57
2018-02-03T04:38:17.496Z,74.34
2018-02-03T04:40:46.281Z,74.34
2018-02-03T04:43:15.070Z,73.82
2018-02-03T04:45:43.950Z,73.63
2018-02-03T04:48:12.763Z,73.67
2018-02-03T04:50:42.221Z,73.42
2018-02-03T04:53:11.008Z,73.21
2018-02-03T04:55:41.253Z,73.46
2018-02-03T04:58:10.050Z,73.40
2018-02-03T05:00:39.152Z,73.61
2018-02-03T05:03:07.924Z,73.63
2018-02-03T05:05:39.327Z,73.72
2018-02-03T05:08:08.125Z,73.92
2018-02-03T05:10:37.884Z,74.00
2018-02-03T05:13:07.673Z,74.21
2018-02-03T05:15:37.811Z,73.94
2018-02-03T05:18:06.575Z,73.84
2018-02-03T05:20:36.467Z,73.82
2018-02-03T05:23:05.646Z,73.49
2018-02-03T05:25:35.417Z,73.29
2018-02-03T05:28:05.340Z,73.18
2018-02-03T05:30:35.708Z,73.21
2018-02-03T05:33:04.837Z,73.18
2018-02-03T05:35:34.029Z,73.20
2018-02-03T05:38:04.118Z,73.11
2018-02-03T05:40:32.957Z,73.22
2018-02-03T05:43:02.253Z,73.06
2018-02-03T05:45:31.124Z,73.00
2018-02-03T05:48:00.318Z,73.00
2018-02-03T05:50:29.129Z,73.06
2018-02-03T05:52:57.937Z,72.92
2018-02-03T05:55:27.945Z,73.29
2018-02-03T05:57:56.988Z,73.24
2018-02-03T06:00:25.825Z,73.17
2018-02-03T06:02:54.638Z,73.00
2018-02-03T06:05:23.559Z,73.67
2018-02-03T06:07:52.656Z,73.52
2018-02-03T06:10:21.473Z,73.76
2018-02-03T06:12:50.597Z,73.56
2018-02-03T06:15:19.984Z,73.57
2018-02-03T06:17:48.863Z,73.35
2018-02-03T06:20:17.688Z,73.13
2018-02-03T06:22:47.751Z,73.25
2018-02-03T06:25:17.214Z,73.61
2018-02-03T06:27:48.101Z,73.11
2018-02-03T06:30:16.887Z,73.10
2018-02-03T06:32:47.292Z,73.25
2018-02-03T06:35:16.086Z,73.41
2018-02-03T06:37:44.983Z,73.63
2018-02-03T06:40:14.633Z,73.69
2018-02-03T06:42:44.836Z,73.74
2018-02-03T06:45:13.730Z,73.17
2018-02-03T06:47:43.848Z,73.38
2018-02-03T06:50:13.112Z,73.68
2018-02-03T06:52:42.265Z,73.85
2018-02-03T06:55:15.044Z,73.82
2018-02-03T06:57:44.927Z,74.07
2018-02-03T07:00:13.913Z,74.03
2018-02-03T07:02:43.252Z,74.36
2018-02-03T07:05:12.124Z,74.39
2018-02-03T07:07:41.460Z,74.27
2018-02-03T07:10:10.781Z,74.27
2018-02-03T07:12:40.840Z,74.17
2018-02-03T07:15:09.746Z,74.30
2018-02-03T07:17:39.700Z,74.58
2018-02-03T07:20:08.707Z,74.34
2018-02-03T07:22:41.665Z,74.02
2018-02-03T07:25:11.022Z,73.87
2018-02-03T07:27:39.832Z,73.58
2018-02-03T07:30:09.015Z,73.76
2018-02-03T07:32:38.753Z,73.80
2018-02-03T07:35:07.608Z,73.67
2018-02-03T07:37:37.225Z,73.80
2018-02-03T07:40:07.885Z,73.64
2018-02-03T07:42:39.577Z,74.12
2018-02-03T07:45:08.513Z,73.84
2018-02-03T07:47:37.654Z,73.92
2018-02-03T07:50:06.861Z,73.90
2018-02-03T07:52:37.185Z,74.01
2018-02-03T07:55:06.061Z,74.39
2018-02-03T07:57:36.258Z,74.41
2018-02-03T08:00:06.029Z,74.14
2018-02-03T08:02:35.716Z,73.79
2018-02-03T08:05:04.971Z,74.39
2018-02-03T08:07:34.598Z,74.89
2018-02-03T08:10:06.044Z,75.14
2018-02-03T08:12:35.801Z,74.55
2018-02-03T08:15:04.779Z,75.30
2018-02-03T08:17:33.583Z,75.49
2018-02-03T08:20:04.391Z,76.45
2018-02-03T08:22:33.285Z,76.42
2018-02-03T08:25:02.716Z,76.55
2018-02-03T08:27:31.953Z,76.48
2018-02-03T08:30:00.884Z,76.40
2018-02-03T08:32:29.900Z,76.88
2018-02-03T08:34:59.196Z,77.44
2018-02-03T08:37:28.029Z,77.52
2018-02-03T08:39:57.050Z,76.65
2018-02-03T08:42:27.345Z,76.14
2018-02-03T08:44:56.433Z,77.28
2018-02-03T08:47:25.279Z,77.38
2018-02-03T08:49:55.108Z,77.97
2018-02-03T08:52:24.206Z,77.71
2018-02-03T08:54:53.136Z,77.73
2018-02-03T08:57:24.466Z,77.99
2018-02-03T08:59:53.325Z,77.39
2018-02-03T09:02:22.236Z,77.28
2018-02-03T09:04:51.654Z,77.00
2018-02-03T09:07:20.545Z,76.61
2018-02-03T09:09:50.369Z,76.65
2018-02-03T09:12:20.618Z,76.59
2018-02-03T09:14:51.447Z,76.79
2018-02-03T09:17:20.234Z,77.30
2018-02-03T09:19:49.399Z,77.88
2018-02-03T09:22:19.983Z,77.74
2018-02-03T09:24:48.932Z,77.96
2018-02-03T09:27:18.440Z,77.97
2018-02-03T09:29:47.248Z,78.10
2018-02-03T09:32:31.168Z,77.97
2018-02-03T09:35:01.682Z,77.71
2018-02-03T09:37:30.506Z,77.23
2018-02-03T09:39:59.399Z,77.33
2018-02-03T09:42:28.544Z,77.16
2018-02-03T09:44:57.406Z,76.39
2018-02-03T09:47:26.222Z,77.37
2018-02-03T09:49:55.331Z,77.79
2018-02-03T09:52:24.208Z,77.02
2018-02-03T09:54:53.079Z,76.52
2018-02-03T09:57:22.292Z,76.19
2018-02-03T09:59:51.138Z,76.38
2018-02-03T10:02:20.012Z,75.51
2018-02-03T10:04:50.774Z,75.48
2018-02-03T10:07:19.713Z,73.99
2018-02-03T10:09:49.109Z,72.62
2018-02-03T10:12:18.348Z,72.60
2018-02-03T10:14:47.158Z,73.17
2018-02-03T10:17:15.968Z,73.31
2018-02-03T10:19:45.567Z,72.98
2018-02-03T10:22:14.571Z,72.09
2018-02-03T10:24:43.554Z,71.58
2018-02-03T10:27:12.942Z,71.11
2018-02-03T10:29:42.172Z,72.06
2018-02-03T10:32:10.930Z,72.28
2018-02-03T10:34:40.544Z,70.95
2018-02-03T10:37:09.330Z,70.84
2018-02-03T10:39:39.112Z,71.74
2018-02-03T10:42:08.484Z,71.97
2018-02-03T10:44:39.858Z,70.31
2018-02-03T10:47:11.245Z,70.55
2018-02-03T10:49:45.120Z,69.83
2018-02-03T10:52:14.367Z,70.48
2018-02-03T10:54:45.023Z,70.76
2018-02-03T10:57:16.364Z,70.36
2018-02-03T10:59:45.177Z,70.70
2018-02-03T11:02:14.296Z,71.68
2018-02-03T11:04:43.573Z,70.62
2018-02-03T11:07:12.636Z,70.49
2018-02-03T11:09:44.568Z,71.03
2018-02-03T11:12:15.195Z,70.33
2018-02-03T11:14:46.511Z,70.21
2018-02-03T11:17:18.176Z,70.43
2018-02-03T11:19:50.562Z,72.02
2018-02-03T11:22:22.169Z,72.79
2018-02-03T11:24:51.846Z,72.86
2018-02-03T11:27:20.851Z,72.29
2018-02-03T11:29:49.778Z,72.52
2018-02-03T11:32:18.907Z,72.41
2018-02-03T11:34:47.802Z,71.55
2018-02-03T11:37:16.725Z,71.53
2018-02-03T11:39:45.984Z,70.83
2018-02-03T11:42:14.929Z,69.98
2018-02-03T11:44:46.378Z,68.32
2018-02-03T11:47:17.137Z,67.78
2018-02-03T11:49:47.292Z,67.40
2018-02-03T11:52:16.173Z,67.08
2018-02-03T11:54:45.663Z,67.62
2018-02-03T11:57:14.605Z,66.11
2018-02-03T11:59:43.661Z,65.47
2018-02-03T12:02:12.920Z,67.45
2018-02-03T12:04:42.342Z,67.41
2018-02-03T12:07:11.261Z,65.38
2018-02-03T12:09:43.833Z,64.44
2018-02-03T12:12:14.220Z,64.09
2018-02-03T12:14:45.351Z,63.94
2018-02-03T12:17:15.725Z,64.23
2018-02-03T12:19:44.957Z,63.87
2018-02-03T12:22:14.096Z,62.80
2018-02-03T12:24:43.567Z,63.39
2018-02-03T12:27:13.602Z,62.17
2018-02-03T12:29:43.308Z,62.34
2018-02-03T12:32:16.717Z,61.49
2018-02-03T12:34:47.089Z,60.09
2018-02-03T12:37:16.438Z,58.57
2018-02-03T12:39:46.249Z,58.24
2018-02-03T12:42:15.364Z,58.12
2018-02-03T12:44:44.307Z,57.60
2018-02-03T12:47:13.889Z,58.95
2018-02-03T12:49:43.351Z,58.83
2018-02-03T12:52:12.248Z,57.69
2018-02-03T12:54:41.673Z,58.34
2018-02-03T12:57:10.843Z,58.96
2018-02-03T13:02:15.227Z,59.54
2018-02-03T13:04:44.691Z,59.37
2018-02-03T13:07:16.304Z,59.06
2018-02-03T13:10:49.203Z,59.13
2018-02-03T13:13:19.221Z,59.05
2018-02-03T13:15:49.893Z,58.03
2018-02-03T13:18:20.371Z,58.16
2018-02-03T13:20:49.632Z,57.51
2018-02-03T13:23:18.470Z,57.77
2018-02-03T13:25:47.587Z,56.50
2018-02-03T13:28:16.709Z,56.89
2018-02-03T13:30:47.739Z,56.80
2018-02-03T13:33:16.971Z,57.53
2018-02-03T13:35:48.001Z,57.56
2018-02-03T13:38:17.146Z,57.88
2018-02-03T13:40:46.023Z,59.12
2018-02-03T13:43:15.273Z,60.31
2018-02-03T13:45:44.757Z,61.06
2018-02-03T13:48:14.465Z,61.54
2018-02-03T13:50:44.970Z,62.41
2018-02-03T13:53:13.829Z,63.91
2018-02-03T13:58:16.614Z,66.80
2018-02-03T14:00:45.563Z,68.34
2018-02-03T14:03:14.466Z,68.60
2018-02-03T14:05:44.272Z,68.63
2018-02-03T14:08:13.788Z,68.89
2018-02-03T14:10:42.853Z,69.23
2018-02-03T14:13:13.088Z,68.95
2018-02-03T14:15:42.500Z,69.15
2018-02-03T14:18:11.540Z,68.79
2018-02-03T14:20:44.184Z,68.19
2018-02-03T14:23:13.527Z,67.77
2018-02-03T14:25:45.598Z,67.06
2018-02-03T14:28:14.919Z,66.87
2018-02-03T14:30:43.977Z,66.78
2018-02-03T14:33:13.030Z,65.89
2018-02-03T14:35:42.356Z,65.40
2018-02-03T14:38:12.559Z,65.66
2018-02-03T14:40:42.156Z,65.44
2018-02-03T14:43:11.585Z,65.40
2018-02-03T14:45:41.157Z,65.38
2018-02-03T14:48:10.365Z,64.81
2018-02-03T14:50:43.602Z,64.79
2018-02-03T14:53:12.474Z,65.34
2018-02-03T14:55:41.470Z,65.17
2018-02-03T14:58:10.557Z,64.95
2018-02-03T15:00:39.766Z,64.52
2018-02-03T15:03:08.826Z,65.91
2018-02-03T15:05:39.129Z,65.73
2018-02-03T15:08:08.116Z,67.01
2018-02-03T15:10:39.355Z,67.08
2018-02-03T15:13:08.233Z,67.48
2018-02-03T15:15:38.104Z,67.30
2018-02-03T15:18:07.720Z,66.98
2018-02-03T15:20:37.181Z,67.76
2018-02-03T15:23:06.863Z,68.32
2018-02-03T15:25:36.964Z,69.68
2018-02-03T15:28:05.898Z,69.49
2018-02-03T15:30:34.722Z,69.37
2018-02-03T15:33:04.714Z,69.13
2018-02-03T15:35:33.588Z,68.84
2018-02-03T15:38:03.907Z,68.67
2018-02-03T15:40:33.711Z,69.08
2018-02-03T15:43:09.008Z,69.23
2018-02-03T15:45:39.025Z,68.90
2018-02-03T15:48:08.904Z,68.95
2018-02-03T15:50:41.301Z,69.20
2018-02-03T15:53:10.417Z,69.35
2018-02-03T15:55:39.990Z,69.34
2018-02-03T15:58:11.525Z,69.38
2018-02-03T16:00:42.524Z,69.61
2018-02-03T16:03:11.734Z,69.22
2018-02-03T16:05:40.955Z,68.95
2018-02-03T16:08:09.868Z,69.45
2018-02-03T16:10:40.381Z,69.79
2018-02-03T16:13:10.146Z,69.73
2018-02-03T16:15:40.111Z,69.63
2018-02-03T16:18:09.074Z,68.03
2018-02-03T16:20:41.513Z,67.88
2018-02-03T16:23:12.951Z,67.77
2018-02-03T16:25:44.336Z,67.75
2018-02-03T16:30:40.385Z,67.49
2018-02-03T16:33:09.509Z,67.11
2018-02-03T16:35:39.628Z,66.86
2018-02-03T16:38:09.417Z,66.18
2018-02-03T16:40:39.164Z,67.08
2018-02-03T16:43:08.008Z,66.90
2018-02-03T16:45:40.387Z,66.83
2018-02-03T16:48:09.341Z,67.15
2018-02-03T16:50:38.632Z,67.46
2018-02-03T16:53:07.849Z,67.11
2018-02-03T16:55:37.364Z,68.11
2018-02-03T16:58:07.216Z,69.79
2018-02-03T17:00:40.153Z,70.44
2018-02-03T17:03:09.404Z,70.76
2018-02-03T17:05:39.654Z,71.07
2018-02-03T17:08:09.888Z,71.41
2018-02-03T17:10:39.805Z,71.71
2018-02-03T17:13:10.590Z,71.72
2018-02-03T17:15:42.885Z,71.87
2018-02-03T17:18:11.870Z,72.29
2018-02-03T17:20:40.940Z,72.33
2018-02-03T17:23:10.275Z,72.41
2018-02-03T17:25:40.433Z,72.40
2018-02-03T17:28:13.171Z,72.29
2018-02-03T17:30:42.881Z,72.40
2018-02-03T17:33:11.732Z,72.12
2018-02-03T17:35:41.052Z,72.25
2018-02-03T17:38:47.357Z,72.23
2018-02-03T17:41:16.308Z,72.06
2018-02-03T17:43:45.606Z,71.82
2018-02-03T17:47:16.779Z,71.59
2018-02-03T17:49:46.614Z,71.68
2018-02-03T17:52:15.393Z,71.86
2018-02-03T17:54:44.634Z,71.93
2018-02-03T17:57:49.081Z,71.90
2018-02-03T18:00:17.914Z,71.84
2018-02-03T18:02:48.104Z,72.14
2018-02-03T18:05:17.891Z,72.18
2018-02-03T18:07:47.252Z,72.19
2018-02-03T18:10:16.429Z,71.88
2018-02-03T18:12:45.339Z,72.42
2018-02-03T18:15:14.369Z,72.13
2018-02-03T18:17:44.012Z,72.23
2018-02-03T18:20:12.933Z,72.98
2018-02-03T18:22:42.620Z,73.49
2018-02-03T18:25:11.788Z,73.78
2018-02-03T18:27:40.824Z,74.15
2018-02-03T18:30:09.621Z,74.45
2018-02-03T18:32:42.853Z,74.24
2018-02-03T18:35:11.784Z,74.61
2018-02-03T18:37:41.112Z,74.38
2018-02-03T18:40:10.303Z,74.61
2018-02-03T18:42:40.518Z,75.12
2018-02-03T18:45:19.177Z,74.94
2018-02-03T18:47:51.029Z,74.95
2018-02-03T18:50:19.917Z,75.04
2018-02-03T18:52:52.513Z,74.80
2018-02-03T18:55:34.242Z,74.50
2018-02-03T18:58:08.853Z,74.72
2018-02-03T19:00:42.877Z,74.35
2018-02-03T19:03:14.339Z,74.57
2018-02-03T19:05:43.234Z,74.52
2018-02-03T19:08:12.129Z,74.79
2018-02-03T19:10:41.268Z,74.32
2018-02-03T19:13:10.380Z,74.62
2018-02-03T19:15:43.089Z,74.48
2018-02-03T19:18:11.961Z,74.23
2018-02-03T19:20:41.734Z,74.20
2018-02-03T19:23:10.540Z,73.62
2018-02-03T19:25:40.463Z,73.52
2018-02-03T19:28:09.546Z,72.73
2018-02-03T19:30:39.488Z,73.02
2018-02-03T19:33:08.877Z,73.26
2018-02-03T19:35:38.297Z,73.44
2018-02-03T19:38:07.161Z,73.55
2018-02-03T19:40:36.581Z,73.79
2018-02-03T19:43:05.808Z,73.67
2018-02-03T19:45:34.671Z,73.50
2018-02-03T19:48:04.493Z,73.35
2018-02-03T19:50:33.752Z,72.44
2018-02-03T19:53:03.653Z,72.36
2018-02-03T19:55:32.468Z,71.96
2018-02-03T19:58:03.195Z,71.14
2018-02-03T20:00:32.029Z,71.30
2018-02-03T20:03:00.837Z,71.39
2018-02-03T20:05:29.905Z,70.91
2018-02-03T20:07:58.778Z,70.53
2018-02-03T20:10:27.568Z,70.85
2018-02-03T20:12:56.670Z,71.22
2018-02-03T20:15:25.942Z,71.96
2018-02-03T20:17:54.847Z,72.90
2018-02-03T20:20:23.872Z,74.16
2018-02-03T20:22:52.696Z,74.24
2018-02-03T20:25:21.655Z,74.51
2018-02-03T20:27:51.500Z,74.53
2018-02-03T20:30:20.414Z,74.41
2018-02-03T20:32:49.229Z,74.55
2018-02-03T20:35:18.309Z,74.62
2018-02-03T20:37:48.944Z,74.63
2018-02-03T20:40:17.793Z,74.56
2018-02-03T20:42:47.182Z,75.03
2018-02-03T20:45:16.036Z,75.36
2018-02-03T20:47:46.437Z,75.83
2018-02-03T20:50:15.752Z,76.51
2018-02-03T20:52:44.790Z,76.47
2018-02-03T20:55:13.635Z,76.18
2018-02-03T20:57:43.217Z,76.09
2018-02-03T21:00:12.042Z,75.86
2018-02-03T21:02:44.465Z,75.58
2018-02-03T21:07:41.430Z,75.42
2018-02-03T21:10:11.304Z,75.07
2018-02-03T21:12:41.359Z,74.60
2018-02-03T21:15:10.124Z,74.19
2018-02-03T21:17:40.729Z,73.96
2018-02-03T21:20:09.874Z,74.03
2018-02-03T21:22:39.743Z,73.94
2018-02-03T21:25:08.689Z,73.93
2018-02-03T21:27:40.092Z,74.22
2018-02-03T21:30:08.921Z,74.09
2018-02-03T21:32:40.594Z,73.94
2018-02-03T21:35:09.709Z,74.03
2018-02-03T21:37:39.702Z,74.27
2018-02-03T21:40:08.901Z,74.32
2018-02-03T21:42:39.920Z,74.25
2018-02-03T21:45:09.404Z,74.05
2018-02-03T21:47:39.477Z,73.91
2018-02-03T21:50:09.242Z,74.06
2018-02-03T21:52:38.553Z,73.77
2018-02-03T21:55:07.938Z,73.85
2018-02-03T21:57:37.432Z,74.25
2018-02-03T22:00:07.128Z,73.64
2018-02-03T22:02:36.372Z,73.78
2018-02-03T22:05:05.609Z,73.67
2018-02-03T22:07:34.424Z,73.78
2018-02-03T22:10:05.764Z,74.00
2018-02-03T22:12:34.556Z,73.84
2018-02-03T22:15:09.016Z,73.86
2018-02-03T22:17:42.365Z,73.91
2018-02-03T22:20:11.669Z,73.94
2018-02-03T22:22:41.648Z,73.26
2018-02-03T22:25:10.456Z,73.68
2018-02-03T22:27:41.329Z,73.54
2018-02-03T22:30:10.098Z,73.07
2018-02-03T22:32:40.307Z,73.17
2018-02-03T22:35:09.401Z,73.21
2018-02-03T22:37:40.558Z,73.26
2018-02-03T22:40:09.943Z,73.14
2018-02-03T22:42:39.660Z,73.26
2018-02-03T22:45:08.480Z,73.07
2018-02-03T22:47:38.738Z,73.30
2018-02-03T22:50:07.569Z,73.07
2018-02-03T22:52:36.415Z,73.39
2018-02-03T22:55:05.200Z,73.32
2018-02-03T22:57:34.100Z,73.47
2018-02-03T23:00:05.300Z,73.49
2018-02-03T23:02:38.988Z,73.78
2018-02-03T23:05:09.209Z,73.60
2018-02-03T23:07:39.860Z,73.71
2018-02-03T23:10:09.032Z,73.55
2018-02-03T23:12:38.076Z,73.95
2018-02-03T23:15:07.264Z,73.75
2018-02-03T23:17:36.343Z,73.69
2018-02-03T23:20:05.960Z,73.61
2018-02-03T23:22:34.748Z,73.60
2018-02-03T23:25:04.245Z,73.92
2018-02-03T23:27:33.048Z,73.83
2018-02-03T23:30:04.055Z,73.86
2018-02-03T23:32:33.112Z,74.34
2018-02-03T23:35:02.277Z,73.79
2018-02-03T23:37:31.045Z,73.76
2018-02-03T23:40:00.294Z,73.55
2018-02-03T23:42:29.195Z,73.52
2018-02-03T23:44:58.232Z,73.98
2018-02-03T23:47:27.487Z,74.87
2018-02-03T23:49:56.355Z,74.28
2018-02-03T23:52:25.206Z,74.61
2018-02-03T23:54:54.541Z,74.81
2018-02-03T23:57:23.408Z,75.11
2018-02-03T23:59:52.541Z,75.27
